createdAt,value
2023-03-16T00:00:18.682Z,30.50
2023-03-16T00:02:45.878Z,25.45
2023-03-16T00:05:14.522Z,27.75
2023-03-16T00:07:42.331Z,25.52
2023-03-16T00:10:12.629Z,29.80
2023-03-16T00:12:39.968Z,32.13
2023-03-16T00:15:07.804Z,33.00
2023-03-16T00:17:34.926Z,23.30
2023-03-16T00:20:06.716Z,20.40
2023-03-16T00:22:34.103Z,28.00
2023-03-16T00:25:01.897Z,25.05
2023-03-16T00:27:29.053Z,23.15
2023-03-16T00:29:56.525Z,28.92
2023-03-16T00:32:29.446Z,22.17
2023-03-16T00:34:56.689Z,22.15
2023-03-16T00:37:25.626Z,26.55
2023-03-16T00:39:56.431Z,30.08
2023-03-16T00:42:27.823Z,22.95
2023-03-16T00:44:57.740Z,30.30
2023-03-16T00:47:27.049Z,23.90
2023-03-16T00:49:54.728Z,27.85
2023-03-16T00:52:22.329Z,26.92
2023-03-16T00:54:53.085Z,27.08
2023-03-16T00:57:21.740Z,24.60
2023-03-16T00:59:49.327Z,31.33
2023-03-16T01:02:19.454Z,29.38
2023-03-16T01:04:46.547Z,26.40
2023-03-16T01:07:14.939Z,26.52
2023-03-16T01:09:43.109Z,21.30
2023-03-16T01:12:18.038Z,35.30
2023-03-16T01:14:48.462Z,30.88
2023-03-16T01:17:17.648Z,24.83
2023-03-16T01:19:44.772Z,28.75
2023-03-16T01:22:12.389Z,33.60
2023-03-16T01:24:40.719Z,25.88
2023-03-16T01:27:08.968Z,23.77
2023-03-16T01:29:37.363Z,27.98
2023-03-16T01:32:05.029Z,33.17
2023-03-16T01:34:33.718Z,25.67
2023-03-16T01:37:01.615Z,23.17
2023-03-16T01:39:49.305Z,29.52
2023-03-16T01:42:16.763Z,27.67
2023-03-16T01:44:56.496Z,26.52
2023-03-16T01:47:38.272Z,28.00
2023-03-16T01:50:07.671Z,25.70
2023-03-16T01:52:38.621Z,25.90
2023-03-16T01:55:15.301Z,21.02
2023-03-16T01:57:46.833Z,24.88
2023-03-16T02:00:23.837Z,21.00
2023-03-16T02:03:18.923Z,21.83
2023-03-16T02:06:04.771Z,28.30
2023-03-16T02:08:34.698Z,27.83
2023-03-16T02:11:01.947Z,26.88
2023-03-16T02:13:47.809Z,32.45
2023-03-16T02:16:19.651Z,27.85
2023-03-16T02:18:51.038Z,22.85
2023-03-16T02:21:30.504Z,30.52
2023-03-16T02:23:57.825Z,29.20
2023-03-16T02:26:39.992Z,27.08
2023-03-16T02:29:18.555Z,29.92
2023-03-16T02:31:47.694Z,28.98
2023-03-16T02:34:17.216Z,26.10
2023-03-16T02:36:46.944Z,27.05
2023-03-16T02:39:14.713Z,24.77
2023-03-16T02:41:47.541Z,25.20
2023-03-16T02:44:26.722Z,26.52
2023-03-16T02:46:58.422Z,24.02
2023-03-16T02:49:32.947Z,24.77
2023-03-16T02:52:00.139Z,21.45
2023-03-16T02:54:27.701Z,28.63
2023-03-16T02:56:54.903Z,27.70
2023-03-16T02:59:23.324Z,30.88
2023-03-16T03:01:50.394Z,26.83
2023-03-16T03:04:17.684Z,27.10
2023-03-16T03:06:44.656Z,26.85
2023-03-16T03:09:12.365Z,27.42
2023-03-16T03:11:41.183Z,23.30
2023-03-16T03:14:08.393Z,24.80
2023-03-16T03:16:37.543Z,23.95
2023-03-16T03:19:04.633Z,19.88
2023-03-16T03:21:36.052Z,23.27
2023-03-16T03:24:03.096Z,22.90
2023-03-16T03:26:30.044Z,24.30
2023-03-16T03:28:59.822Z,29.35
2023-03-16T03:31:27.071Z,25.85
2023-03-16T03:33:54.079Z,31.02
2023-03-16T03:36:22.436Z,24.35
2023-03-16T03:38:49.865Z,27.92
2023-03-16T03:41:19.303Z,27.25
2023-03-16T03:43:46.946Z,25.40
2023-03-16T03:46:16.567Z,24.27
2023-03-16T03:48:43.604Z,29.48
2023-03-16T03:51:11.058Z,26.58
2023-03-16T03:54:04.419Z,22.17
2023-03-16T03:59:17.498Z,20.20
2023-03-16T04:01:59.723Z,19.92
2023-03-16T04:04:36.584Z,21.65
2023-03-16T04:07:04.130Z,22.88
2023-03-16T04:09:34.079Z,24.73
2023-03-16T04:12:03.580Z,22.00
2023-03-16T04:14:31.010Z,21.95
2023-03-16T04:17:01.201Z,24.98
2023-03-16T04:19:28.853Z,26.65
2023-03-16T04:21:56.749Z,25.98
2023-03-16T04:24:24.659Z,25.27
2023-03-16T04:26:54.383Z,30.30
2023-03-16T04:29:22.199Z,28.77
2023-03-16T04:31:49.283Z,25.40
2023-03-16T04:34:16.350Z,31.27
2023-03-16T04:36:43.398Z,34.42
2023-03-16T04:39:11.176Z,34.22
2023-03-16T04:41:38.292Z,29.83
2023-03-16T04:44:17.569Z,31.80
2023-03-16T04:46:44.934Z,30.90
2023-03-16T04:49:12.754Z,33.65
2023-03-16T04:51:43.287Z,32.03
2023-03-16T04:54:14.680Z,32.15
2023-03-16T04:56:43.998Z,27.85
2023-03-16T04:59:30.356Z,29.40
2023-03-16T05:02:04.541Z,25.27
2023-03-16T05:04:32.413Z,30.35
2023-03-16T05:06:59.692Z,29.67
2023-03-16T05:09:32.624Z,30.63
2023-03-16T05:11:59.839Z,27.33
2023-03-16T05:14:27.435Z,24.08
2023-03-16T05:17:14.860Z,27.65
2023-03-16T05:19:43.160Z,22.85
2023-03-16T05:22:10.701Z,24.15
2023-03-16T05:24:40.618Z,19.67
2023-03-16T05:27:07.752Z,20.38
2023-03-16T05:29:34.968Z,19.38
2023-03-16T05:32:01.949Z,23.88
2023-03-16T05:34:31.765Z,24.35
2023-03-16T05:36:59.021Z,23.77
2023-03-16T05:39:26.055Z,22.58
2023-03-16T05:41:55.244Z,23.73
2023-03-16T05:44:26.826Z,29.92
2023-03-16T05:47:06.963Z,25.63
2023-03-16T05:49:38.254Z,25.35
2023-03-16T05:52:10.238Z,27.65
2023-03-16T05:54:37.726Z,29.42
2023-03-16T05:57:07.205Z,28.00
2023-03-16T05:59:36.506Z,23.77
2023-03-16T06:02:04.922Z,20.27
2023-03-16T06:04:32.420Z,21.95
2023-03-16T06:07:00.281Z,23.40
2023-03-16T06:09:29.032Z,24.50
2023-03-16T06:11:56.172Z,22.70
2023-03-16T06:14:24.080Z,22.95
2023-03-16T06:16:53.102Z,20.88
2023-03-16T06:19:21.774Z,22.02
2023-03-16T06:21:54.348Z,23.20
2023-03-16T06:24:21.492Z,23.67
2023-03-16T06:26:48.505Z,21.40
2023-03-16T06:29:15.688Z,22.73
2023-03-16T06:31:42.880Z,17.48
2023-03-16T06:34:11.720Z,20.73
2023-03-16T06:36:39.919Z,17.48
2023-03-16T06:39:11.584Z,16.85
2023-03-16T06:41:42.887Z,24.35
2023-03-16T06:44:12.654Z,18.52
2023-03-16T06:46:49.410Z,18.17
2023-03-16T06:49:16.660Z,17.33
2023-03-16T06:51:43.702Z,15.05
2023-03-16T06:54:10.723Z,20.08
2023-03-16T06:56:40.065Z,21.83
2023-03-16T06:59:07.551Z,19.95
2023-03-16T07:01:36.928Z,25.70
2023-03-16T07:04:04.141Z,18.40
2023-03-16T07:06:32.987Z,19.85
2023-03-16T07:09:01.603Z,14.95
2023-03-16T07:11:30.448Z,18.48
2023-03-16T07:13:58.763Z,17.30
2023-03-16T07:16:27.940Z,16.27
2023-03-16T07:18:58.803Z,15.38
2023-03-16T07:21:25.993Z,27.30
2023-03-16T07:23:53.986Z,20.65
2023-03-16T07:26:25.106Z,28.45
2023-03-16T07:28:58.043Z,24.73
2023-03-16T07:31:26.070Z,14.43
2023-03-16T07:33:55.404Z,15.45
2023-03-16T07:36:32.454Z,13.25
2023-03-16T07:39:01.867Z,14.77
2023-03-16T07:41:30.116Z,12.55
2023-03-16T07:44:14.464Z,12.93
2023-03-16T07:46:41.755Z,14.70
2023-03-16T07:49:10.896Z,13.13
2023-03-16T07:51:39.329Z,2.08
2023-03-16T07:54:07.285Z,1.23
2023-03-16T07:56:48.266Z,1.42
2023-03-16T07:59:27.295Z,2.88
2023-03-16T08:01:54.515Z,1.73
2023-03-16T08:04:22.585Z,4.00
2023-03-16T08:07:00.343Z,3.88
2023-03-16T08:09:36.709Z,3.85
2023-03-16T08:12:07.726Z,2.00
2023-03-16T08:14:36.992Z,3.22
2023-03-16T08:17:12.339Z,2.65
2023-03-16T08:19:40.394Z,20.35
2023-03-16T08:22:09.870Z,23.67
2023-03-16T08:24:42.400Z,4.40
2023-03-16T08:27:12.158Z,3.35
2023-03-16T08:29:43.439Z,4.32
2023-03-16T08:32:14.691Z,3.38
2023-03-16T08:34:44.135Z,4.28
2023-03-16T08:37:11.765Z,3.40
2023-03-16T08:39:42.250Z,3.15
2023-03-16T08:42:15.325Z,3.50
2023-03-16T08:44:47.861Z,4.07
2023-03-16T08:47:15.155Z,4.88
2023-03-16T08:49:44.916Z,3.53
2023-03-16T08:52:16.015Z,3.50
2023-03-16T08:54:59.766Z,5.38
2023-03-16T08:59:56.004Z,4.65
2023-03-16T09:02:22.990Z,3.00
2023-03-16T09:04:50.583Z,6.45
2023-03-16T09:07:18.861Z,6.35
2023-03-16T09:09:46.592Z,6.20
2023-03-16T09:12:13.769Z,4.70
2023-03-16T09:14:40.949Z,5.28
2023-03-16T09:17:08.094Z,4.00
2023-03-16T09:19:50.489Z,4.75
2023-03-16T09:22:20.438Z,3.15
2023-03-16T09:24:48.695Z,3.95
2023-03-16T09:27:17.433Z,5.88
2023-03-16T09:29:45.535Z,3.63
2023-03-16T09:32:13.155Z,3.92
2023-03-16T09:34:40.385Z,4.18
2023-03-16T09:37:07.579Z,4.57
2023-03-16T09:39:34.674Z,5.85
2023-03-16T09:42:04.594Z,3.72
2023-03-16T09:45:07.030Z,4.43
2023-03-16T09:47:36.810Z,6.10
2023-03-16T09:50:08.831Z,6.63
2023-03-16T09:52:52.254Z,3.45
2023-03-16T09:55:28.018Z,5.00
2023-03-16T09:57:57.548Z,7.65
2023-03-16T10:00:39.641Z,4.05
2023-03-16T10:03:22.892Z,4.90
2023-03-16T10:05:57.492Z,5.70
2023-03-16T10:08:44.190Z,4.05
2023-03-16T10:11:11.360Z,4.88
2023-03-16T10:14:02.748Z,4.28
2023-03-16T10:16:35.552Z,5.00
2023-03-16T10:19:13.347Z,5.57
2023-03-16T10:21:41.679Z,4.90
2023-03-16T10:24:42.533Z,7.20
2023-03-16T10:27:19.608Z,6.97
2023-03-16T10:29:47.859Z,6.07
2023-03-16T10:32:19.028Z,8.40
2023-03-16T10:34:53.383Z,6.32
2023-03-16T10:37:21.655Z,7.63
2023-03-16T10:39:49.433Z,7.22
2023-03-16T10:42:19.153Z,4.68
2023-03-16T10:44:46.836Z,8.30
2023-03-16T10:47:24.998Z,7.32
2023-03-16T10:49:52.092Z,7.03
2023-03-16T10:52:41.058Z,7.60
2023-03-16T10:55:23.868Z,6.60
2023-03-16T10:57:56.386Z,6.75
2023-03-16T11:00:30.098Z,4.82
2023-03-16T11:03:00.064Z,6.75
2023-03-16T11:05:34.781Z,5.35
2023-03-16T11:08:25.927Z,5.82
2023-03-16T11:10:59.284Z,5.47
2023-03-16T11:13:34.616Z,7.32
2023-03-16T11:18:38.731Z,8.57
2023-03-16T11:21:17.435Z,5.95
2023-03-16T11:23:49.823Z,8.57
2023-03-16T11:26:34.649Z,6.88
2023-03-16T11:29:25.853Z,8.87
2023-03-16T11:32:05.439Z,9.60
2023-03-16T11:34:33.442Z,7.63
2023-03-16T11:37:14.990Z,8.70
2023-03-16T11:40:14.349Z,5.00
2023-03-16T11:43:00.125Z,7.20
2023-03-16T11:45:52.874Z,7.38
2023-03-16T11:48:25.838Z,6.60
2023-03-16T11:51:05.217Z,8.05
2023-03-16T11:53:51.320Z,7.50
2023-03-16T11:56:44.151Z,9.32
2023-03-16T11:59:11.257Z,8.30
2023-03-16T12:02:00.828Z,9.15
2023-03-16T12:04:55.333Z,9.85
2023-03-16T12:08:00.158Z,8.57
2023-03-16T12:10:42.050Z,6.68
2023-03-16T12:13:30.880Z,11.23
2023-03-16T12:16:07.890Z,14.32
2023-03-16T12:18:35.016Z,14.23
2023-03-16T12:21:15.364Z,6.10
2023-03-16T12:23:53.551Z,8.68
2023-03-16T12:26:23.575Z,8.10
2023-03-16T12:28:54.446Z,8.20
2023-03-16T12:31:41.718Z,8.82
2023-03-16T12:34:33.510Z,8.05
2023-03-16T12:37:26.548Z,9.90
2023-03-16T12:40:09.400Z,9.57
2023-03-16T12:43:01.646Z,8.25
2023-03-16T12:45:39.221Z,10.65
2023-03-16T12:48:21.303Z,9.15
2023-03-16T12:50:54.932Z,8.20
2023-03-16T12:53:40.550Z,9.05
2023-03-16T12:56:10.182Z,7.63
2023-03-16T12:58:43.697Z,8.57
2023-03-16T13:01:12.371Z,6.60
2023-03-16T13:03:41.324Z,9.25
2023-03-16T13:06:18.966Z,6.03
2023-03-16T13:08:52.535Z,7.20
2023-03-16T13:11:20.338Z,7.90
2023-03-16T13:14:00.696Z,6.20
2023-03-16T13:16:30.214Z,7.30
2023-03-16T13:18:57.619Z,8.02
2023-03-16T13:21:38.236Z,8.07
2023-03-16T13:24:26.344Z,9.73
2023-03-16T13:27:04.520Z,7.88
2023-03-16T13:29:32.960Z,10.60
2023-03-16T13:32:08.871Z,7.93
2023-03-16T13:34:47.279Z,8.57
2023-03-16T13:37:18.189Z,6.97
2023-03-16T13:39:54.631Z,4.07
2023-03-16T13:42:23.923Z,6.05
2023-03-16T13:44:56.826Z,4.10
2023-03-16T13:47:27.752Z,4.00
2023-03-16T13:49:58.099Z,3.58
2023-03-16T13:52:34.379Z,3.67
2023-03-16T13:55:07.484Z,3.53
2023-03-16T13:57:40.836Z,8.82
2023-03-16T14:00:20.275Z,4.10
2023-03-16T14:02:51.832Z,6.03
2023-03-16T14:05:23.223Z,6.35
2023-03-16T14:07:51.579Z,6.97
2023-03-16T14:10:19.192Z,4.75
2023-03-16T14:13:07.287Z,5.32
2023-03-16T14:15:38.387Z,6.65
2023-03-16T14:18:21.713Z,5.80
2023-03-16T14:20:53.586Z,5.47
2023-03-16T14:23:48.097Z,5.97
2023-03-16T14:26:27.634Z,5.20
2023-03-16T14:29:04.748Z,6.10
2023-03-16T14:31:38.797Z,6.85
2023-03-16T14:34:20.069Z,5.25
2023-03-16T14:36:47.342Z,5.25
2023-03-16T14:39:17.165Z,6.00
2023-03-16T14:41:45.410Z,5.13
2023-03-16T14:44:22.781Z,4.93
2023-03-16T14:46:50.848Z,5.55
2023-03-16T14:49:28.168Z,5.45
2023-03-16T14:52:12.284Z,4.20
2023-03-16T14:54:39.323Z,4.45
2023-03-16T14:57:06.642Z,6.28
2023-03-16T14:59:34.084Z,8.70
2023-03-16T15:02:03.304Z,4.47
2023-03-16T15:04:41.238Z,6.43
2023-03-16T15:07:36.022Z,7.13
2023-03-16T15:10:23.305Z,5.90
2023-03-16T15:13:04.325Z,5.13
2023-03-16T15:15:31.858Z,6.05
2023-03-16T15:18:00.015Z,7.30
2023-03-16T15:20:42.807Z,7.30
2023-03-16T15:23:17.335Z,9.68
2023-03-16T15:25:45.967Z,6.85
2023-03-16T15:28:17.463Z,7.53
2023-03-16T15:30:46.937Z,8.27
2023-03-16T15:33:14.312Z,8.27
2023-03-16T15:35:42.413Z,9.10
2023-03-16T15:38:22.811Z,5.90
2023-03-16T15:40:51.463Z,5.50
2023-03-16T15:43:21.520Z,10.05
2023-03-16T15:45:49.532Z,8.90
2023-03-16T15:48:17.086Z,8.93
2023-03-16T15:50:58.461Z,6.97
2023-03-16T15:53:35.715Z,7.50
2023-03-16T15:56:32.336Z,7.57
2023-03-16T15:59:04.307Z,5.00
2023-03-16T16:01:39.367Z,8.25
2023-03-16T16:04:12.921Z,8.32
2023-03-16T16:06:40.253Z,6.28
2023-03-16T16:09:07.561Z,5.97
2023-03-16T16:11:34.753Z,5.93
2023-03-16T16:14:02.222Z,7.15
2023-03-16T16:16:32.074Z,6.85
2023-03-16T16:19:00.448Z,6.53
2023-03-16T16:21:31.064Z,9.13
2023-03-16T16:23:58.253Z,5.43
2023-03-16T16:26:49.997Z,11.60
2023-03-16T16:29:24.433Z,6.28
2023-03-16T16:31:52.208Z,6.85
2023-03-16T16:34:24.631Z,11.95
2023-03-16T16:36:52.118Z,6.68
2023-03-16T16:39:19.300Z,5.20
2023-03-16T16:41:48.517Z,6.45
2023-03-16T16:44:19.221Z,5.05
2023-03-16T16:46:49.530Z,7.38
2023-03-16T16:49:23.800Z,6.82
2023-03-16T16:51:52.735Z,6.38
2023-03-16T16:54:25.684Z,5.80
2023-03-16T16:56:54.644Z,7.07
2023-03-16T16:59:25.107Z,7.70
2023-03-16T17:01:56.779Z,6.50
2023-03-16T17:04:27.350Z,7.32
2023-03-16T17:06:58.653Z,8.27
2023-03-16T17:09:27.869Z,7.70
2023-03-16T17:11:58.746Z,11.27
2023-03-16T17:14:28.445Z,8.13
2023-03-16T17:16:56.234Z,9.93
2023-03-16T17:19:27.340Z,10.77
2023-03-16T17:21:57.433Z,6.60
2023-03-16T17:24:25.541Z,9.40
2023-03-16T17:26:56.381Z,8.82
2023-03-16T17:29:32.321Z,8.85
2023-03-16T17:32:01.601Z,7.93
2023-03-16T17:34:30.361Z,11.55
2023-03-16T17:36:57.370Z,7.88
2023-03-16T17:39:30.962Z,9.82
2023-03-16T17:42:04.107Z,9.52
2023-03-16T17:44:34.344Z,11.75
2023-03-16T17:47:01.713Z,8.90
2023-03-16T17:49:30.940Z,9.18
2023-03-16T17:51:58.206Z,9.25
2023-03-16T17:54:25.135Z,10.60
2023-03-16T17:56:54.414Z,10.98
2023-03-16T17:59:23.099Z,8.20
2023-03-16T18:01:50.661Z,10.88
2023-03-16T18:04:24.037Z,11.05
2023-03-16T18:06:52.378Z,9.25
2023-03-16T18:09:20.672Z,9.68
2023-03-16T18:11:51.400Z,10.18
2023-03-16T18:14:35.281Z,9.38
2023-03-16T18:17:31.029Z,11.48
2023-03-16T18:19:59.295Z,8.70
2023-03-16T18:22:28.165Z,14.05
2023-03-16T18:24:56.063Z,11.60
2023-03-16T18:27:23.209Z,10.88
2023-03-16T18:29:50.313Z,9.10
2023-03-16T18:32:20.133Z,11.70
2023-03-16T18:34:47.558Z,7.97
2023-03-16T18:37:20.315Z,9.85
2023-03-16T18:39:48.310Z,10.40
2023-03-16T18:42:22.094Z,8.70
2023-03-16T18:44:49.603Z,9.82
2023-03-16T18:47:23.560Z,8.18
2023-03-16T18:49:53.750Z,9.75
2023-03-16T18:52:26.577Z,9.40
2023-03-16T18:54:53.681Z,10.85
2023-03-16T18:57:23.581Z,11.52
2023-03-16T18:59:51.256Z,12.25
2023-03-16T19:02:39.640Z,8.25
2023-03-16T19:05:23.603Z,9.05
2023-03-16T19:07:52.714Z,8.15
2023-03-16T19:10:38.400Z,9.93
2023-03-16T19:13:17.239Z,6.70
2023-03-16T19:15:44.315Z,7.63
2023-03-16T19:18:11.753Z,5.22
2023-03-16T19:20:42.316Z,5.35
2023-03-16T19:23:26.392Z,9.20
2023-03-16T19:25:54.588Z,6.43
2023-03-16T19:28:21.524Z,7.68
2023-03-16T19:30:48.783Z,8.13
2023-03-16T19:33:25.909Z,10.48
2023-03-16T19:35:54.931Z,5.90
2023-03-16T19:38:23.400Z,6.35
2023-03-16T19:40:56.307Z,7.03
2023-03-16T19:43:24.372Z,6.25
2023-03-16T19:45:52.374Z,5.90
2023-03-16T19:48:31.919Z,11.60
2023-03-16T19:50:59.404Z,9.80
2023-03-16T19:53:27.537Z,6.47
2023-03-16T19:55:54.800Z,6.72
2023-03-16T19:58:39.452Z,7.43
2023-03-16T20:01:17.798Z,8.13
2023-03-16T20:03:47.815Z,8.48
2023-03-16T20:06:16.834Z,9.52
2023-03-16T20:08:44.328Z,6.20
2023-03-16T20:11:24.857Z,6.18
2023-03-16T20:13:52.414Z,6.32
2023-03-16T20:16:28.771Z,5.85
2023-03-16T20:19:02.341Z,6.30
2023-03-16T20:21:30.185Z,5.78
2023-03-16T20:23:57.514Z,10.27
2023-03-16T20:26:32.333Z,5.70
2023-03-16T20:29:01.024Z,6.03
2023-03-16T20:34:26.688Z,5.35
2023-03-16T20:36:54.324Z,5.65
2023-03-16T20:39:21.693Z,5.95
2023-03-16T20:41:49.357Z,7.22
2023-03-16T20:44:19.260Z,6.28
2023-03-16T20:46:47.064Z,6.90
2023-03-16T20:49:23.248Z,8.38
2023-03-16T20:51:51.546Z,6.03
2023-03-16T20:54:18.740Z,6.78
2023-03-16T20:56:45.773Z,9.95
2023-03-16T20:59:23.709Z,7.03
2023-03-16T21:01:54.721Z,8.55
2023-03-16T21:04:27.528Z,7.40
2023-03-16T21:09:47.418Z,5.43
2023-03-16T21:12:29.324Z,7.75
2023-03-16T21:14:57.657Z,9.50
2023-03-16T21:17:31.500Z,7.97
2023-03-16T21:19:59.824Z,6.00
2023-03-16T21:22:30.913Z,7.72
2023-03-16T21:24:58.104Z,7.05
2023-03-16T21:27:30.876Z,8.10
2023-03-16T21:30:01.092Z,7.53
2023-03-16T21:32:28.683Z,5.82
2023-03-16T21:34:57.174Z,6.10
2023-03-16T21:37:24.569Z,6.55
2023-03-16T21:39:52.412Z,5.70
2023-03-16T21:42:20.056Z,6.50
2023-03-16T21:44:47.432Z,7.07
2023-03-16T21:47:26.692Z,7.25
2023-03-16T21:49:54.923Z,7.63
2023-03-16T21:52:28.242Z,7.40
2023-03-16T21:54:57.219Z,8.25
2023-03-16T21:57:24.905Z,9.40
2023-03-16T21:59:52.051Z,8.32
2023-03-16T22:02:27.967Z,8.48
2023-03-16T22:04:56.947Z,6.78
2023-03-16T22:07:23.977Z,8.00
2023-03-16T22:09:51.244Z,8.40
2023-03-16T22:12:18.702Z,7.45
2023-03-16T22:14:46.072Z,8.00
2023-03-16T22:17:22.296Z,13.48
2023-03-16T22:19:49.559Z,11.20
2023-03-16T22:22:17.691Z,7.32
2023-03-16T22:24:44.809Z,9.02
2023-03-16T22:27:21.836Z,7.15
2023-03-16T22:29:50.057Z,8.10
2023-03-16T22:32:20.973Z,8.90
2023-03-16T22:34:57.321Z,10.20
2023-03-16T22:37:29.293Z,8.90
2023-03-16T22:39:58.641Z,9.35
2023-03-16T22:42:32.939Z,10.85
2023-03-16T22:45:01.219Z,7.15
2023-03-16T22:47:33.722Z,8.18
2023-03-16T22:50:01.266Z,7.55
2023-03-16T22:52:32.948Z,7.57
2023-03-16T22:55:02.071Z,9.70
2023-03-16T22:57:30.343Z,4.85
2023-03-16T22:59:58.554Z,7.30
2023-03-16T23:02:26.842Z,8.40
2023-03-16T23:04:53.859Z,7.10
2023-03-16T23:07:20.953Z,8.25
2023-03-16T23:09:48.624Z,6.85
2023-03-16T23:12:21.609Z,7.50
2023-03-16T23:14:48.846Z,8.55
2023-03-16T23:17:18.873Z,7.30
2023-03-16T23:19:46.595Z,6.93
2023-03-16T23:22:14.427Z,8.15
2023-03-16T23:24:42.653Z,6.75
2023-03-16T23:27:22.446Z,6.78
2023-03-16T23:29:49.786Z,10.23
2023-03-16T23:32:17.347Z,7.00
2023-03-16T23:34:44.787Z,6.25
2023-03-16T23:37:12.078Z,6.80
2023-03-16T23:39:40.044Z,7.82
2023-03-16T23:42:07.633Z,6.25
2023-03-16T23:44:34.929Z,7.65
2023-03-16T23:47:02.478Z,5.50
2023-03-16T23:49:33.099Z,6.80
2023-03-16T23:52:01.928Z,5.72
2023-03-16T23:54:32.144Z,5.80
2023-03-16T23:56:59.377Z,8.30
2023-03-16T23:59:27.902Z,4.85
